createdAt,value
2018-09-14T00:00:11.620Z,2.87
2018-09-14T00:01:15.568Z,2.30
2018-09-14T00:02:19.515Z,2.50
2018-09-14T00:03:22.542Z,3.00
2018-09-14T00:04:26.833Z,2.20
2018-09-14T00:05:31.059Z,2.12
2018-09-14T00:06:35.172Z,1.80
2018-09-14T00:07:39.336Z,2.35
2018-09-14T00:08:42.502Z,2.30
2018-09-14T00:09:45.723Z,3.05
2018-09-14T00:10:48.961Z,2.02
2018-09-14T00:11:52.084Z,2.20
2018-09-14T00:12:55.196Z,2.58
2018-09-14T00:13:58.280Z,2.15
2018-09-14T00:15:01.352Z,2.58
2018-09-14T00:16:04.410Z,2.20
2018-09-14T00:17:07.705Z,2.92
2018-09-14T00:18:10.825Z,2.67
2018-09-14T00:19:14.529Z,2.15
2018-09-14T00:20:17.985Z,2.30
2018-09-14T00:21:21.189Z,2.33
2018-09-14T00:22:24.232Z,2.45
2018-09-14T00:23:27.263Z,2.67
2018-09-14T00:24:30.429Z,2.72
2018-09-14T00:25:33.626Z,2.30
2018-09-14T00:26:36.725Z,2.72
2018-09-14T00:27:39.767Z,3.27
2018-09-14T00:28:42.971Z,2.70
2018-09-14T00:29:46.044Z,2.67
2018-09-14T00:30:49.100Z,2.83
2018-09-14T00:31:52.334Z,2.92
2018-09-14T00:32:55.462Z,3.00
2018-09-14T00:33:58.650Z,2.70
2018-09-14T00:35:01.828Z,2.67
2018-09-14T00:36:04.998Z,2.52
2018-09-14T00:37:08.071Z,2.65
2018-09-14T00:38:11.224Z,2.60
2018-09-14T00:39:14.346Z,2.12
2018-09-14T00:40:17.616Z,2.92
2018-09-14T00:41:20.814Z,3.30
2018-09-14T00:42:23.944Z,2.62
2018-09-14T00:43:27.210Z,2.95
2018-09-14T00:44:30.381Z,3.22
2018-09-14T00:45:33.479Z,3.08
2018-09-14T00:46:36.591Z,2.83
2018-09-14T00:47:39.744Z,2.65
2018-09-14T00:48:42.860Z,2.67
2018-09-14T00:49:46.964Z,2.77
2018-09-14T00:50:51.024Z,3.00
2018-09-14T00:51:55.479Z,2.62
2018-09-14T00:52:58.534Z,3.52
2018-09-14T00:54:01.624Z,3.25
2018-09-14T00:55:04.716Z,2.65
2018-09-14T00:56:07.759Z,3.30
2018-09-14T00:57:10.932Z,3.47
2018-09-14T00:58:14.045Z,2.98
2018-09-14T00:59:17.157Z,2.98
2018-09-14T01:00:20.231Z,3.47
2018-09-14T01:01:23.320Z,4.37
2018-09-14T01:02:26.731Z,2.87
2018-09-14T01:03:29.940Z,3.08
2018-09-14T01:04:33.085Z,3.55
2018-09-14T01:05:36.317Z,3.27
2018-09-14T01:06:39.629Z,3.42
2018-09-14T01:07:43.608Z,2.87
2018-09-14T01:08:46.987Z,3.25
2018-09-14T01:09:50.343Z,3.62
2018-09-14T01:10:53.674Z,3.50
2018-09-14T01:11:58.974Z,3.67
2018-09-14T01:13:02.179Z,3.25
2018-09-14T01:14:05.315Z,2.90
2018-09-14T01:15:08.592Z,2.90
2018-09-14T01:16:11.624Z,3.35
2018-09-14T01:17:14.893Z,3.35
2018-09-14T01:18:17.996Z,3.50
2018-09-14T01:19:21.046Z,3.35
2018-09-14T01:20:24.123Z,3.20
2018-09-14T01:21:27.181Z,2.90
2018-09-14T01:22:30.267Z,3.50
2018-09-14T01:23:33.367Z,3.15
2018-09-14T01:24:36.439Z,3.70
2018-09-14T01:25:39.673Z,3.35
2018-09-14T01:26:42.763Z,3.30
2018-09-14T01:27:45.924Z,3.42
2018-09-14T01:28:49.256Z,3.37
2018-09-14T01:29:52.352Z,3.65
2018-09-14T01:30:55.513Z,3.10
2018-09-14T01:31:58.806Z,3.30
2018-09-14T01:33:01.948Z,3.30
2018-09-14T01:34:04.986Z,3.17
2018-09-14T01:35:13.484Z,4.37
2018-09-14T01:36:16.659Z,3.70
2018-09-14T01:37:19.784Z,3.62
2018-09-14T01:38:23.084Z,3.42
2018-09-14T01:39:26.300Z,3.70
2018-09-14T01:40:29.382Z,3.47
2018-09-14T01:41:32.618Z,3.22
2018-09-14T01:42:35.788Z,3.50
2018-09-14T01:43:39.138Z,3.92
2018-09-14T01:44:42.192Z,3.90
2018-09-14T01:45:45.279Z,3.72
2018-09-14T01:46:48.545Z,3.50
2018-09-14T01:47:51.598Z,3.30
2018-09-14T01:48:54.728Z,3.87
2018-09-14T01:49:57.904Z,3.98
2018-09-14T01:51:01.497Z,4.05
2018-09-14T01:52:04.856Z,4.15
2018-09-14T01:53:08.023Z,4.78
2018-09-14T01:54:11.241Z,4.22
2018-09-14T01:55:14.644Z,4.75
2018-09-14T01:56:17.806Z,3.55
2018-09-14T01:57:20.984Z,3.83
2018-09-14T01:58:25.744Z,3.67
2018-09-14T01:59:28.974Z,4.20
2018-09-14T02:00:32.032Z,4.25
2018-09-14T02:01:35.126Z,4.62
2018-09-14T02:02:38.128Z,3.80
2018-09-14T02:03:41.168Z,3.60
2018-09-14T02:04:44.299Z,3.98
2018-09-14T02:05:47.391Z,3.72
2018-09-14T02:06:50.591Z,3.75
2018-09-14T02:07:53.783Z,4.20
2018-09-14T02:08:56.992Z,4.30
2018-09-14T02:10:00.197Z,4.70
2018-09-14T02:11:03.441Z,4.00
2018-09-14T02:12:06.881Z,4.20
2018-09-14T02:13:10.051Z,3.83
2018-09-14T02:14:13.130Z,4.30
2018-09-14T02:15:16.656Z,4.35
2018-09-14T02:16:19.965Z,4.08
2018-09-14T02:17:23.122Z,4.15
2018-09-14T02:18:26.906Z,3.92
2018-09-14T02:19:30.057Z,5.22
2018-09-14T02:20:33.193Z,4.10
2018-09-14T02:21:36.259Z,3.95
2018-09-14T02:22:39.426Z,4.30
2018-09-14T02:23:42.537Z,4.62
2018-09-14T02:24:45.689Z,4.62
2018-09-14T02:25:49.444Z,4.28
2018-09-14T02:26:52.537Z,4.10
2018-09-14T02:27:55.633Z,4.60
2018-09-14T02:28:58.870Z,4.05
2018-09-14T02:30:02.456Z,3.87
2018-09-14T02:31:05.683Z,4.65
2018-09-14T02:32:08.808Z,4.20
2018-09-14T02:33:11.930Z,4.53
2018-09-14T02:34:15.027Z,4.42
2018-09-14T02:35:19.122Z,5.10
2018-09-14T02:36:22.629Z,4.15
2018-09-14T02:37:25.987Z,4.33
2018-09-14T02:38:28.955Z,4.58
2018-09-14T02:39:32.278Z,3.95
2018-09-14T02:40:35.590Z,3.80
2018-09-14T02:41:38.713Z,4.10
2018-09-14T02:42:41.825Z,4.55
2018-09-14T02:43:44.932Z,4.47
2018-09-14T02:44:48.013Z,4.33
2018-09-14T02:45:51.251Z,5.25
2018-09-14T02:46:54.318Z,5.10
2018-09-14T02:47:57.497Z,4.72
2018-09-14T02:49:00.493Z,5.78
2018-09-14T02:50:03.552Z,4.42
2018-09-14T02:51:06.609Z,4.87
2018-09-14T02:52:09.737Z,4.50
2018-09-14T02:53:13.223Z,4.22
2018-09-14T02:54:16.490Z,4.75
2018-09-14T02:55:19.628Z,4.83
2018-09-14T02:56:22.845Z,5.25
2018-09-14T02:57:26.100Z,5.58
2018-09-14T02:58:29.140Z,5.62
2018-09-14T02:59:32.287Z,4.90
2018-09-14T03:00:35.703Z,5.15
2018-09-14T03:01:39.024Z,4.80
2018-09-14T03:02:42.240Z,5.55
2018-09-14T03:03:45.312Z,4.67
2018-09-14T03:04:48.424Z,4.92
2018-09-14T03:05:51.551Z,4.70
2018-09-14T03:06:54.621Z,5.10
2018-09-14T03:07:57.681Z,5.37
2018-09-14T03:09:00.863Z,4.87
2018-09-14T03:10:04.313Z,4.97
2018-09-14T03:11:07.502Z,4.58
2018-09-14T03:12:10.622Z,4.58
2018-09-14T03:13:13.593Z,5.37
2018-09-14T03:14:16.758Z,5.80
2018-09-14T03:15:19.943Z,5.35
2018-09-14T03:16:23.027Z,5.37
2018-09-14T03:17:26.193Z,4.78
2018-09-14T03:18:29.280Z,5.12
2018-09-14T03:19:32.333Z,5.08
2018-09-14T03:20:35.420Z,4.90
2018-09-14T03:21:38.563Z,5.53
2018-09-14T03:22:41.573Z,5.70
2018-09-14T03:23:44.877Z,5.47
2018-09-14T03:24:47.982Z,4.95
2018-09-14T03:25:51.073Z,6.20
2018-09-14T03:26:54.209Z,5.45
2018-09-14T03:27:57.357Z,5.45
2018-09-14T03:29:00.427Z,5.47
2018-09-14T03:30:03.535Z,5.72
2018-09-14T03:31:07.208Z,5.72
2018-09-14T03:32:10.807Z,5.72
2018-09-14T03:33:14.255Z,5.30
2018-09-14T03:34:17.361Z,5.78
2018-09-14T03:35:20.515Z,5.42
2018-09-14T03:36:23.664Z,5.45
2018-09-14T03:37:27.028Z,4.65
2018-09-14T03:38:30.181Z,5.30
2018-09-14T03:39:33.322Z,5.20
2018-09-14T03:40:36.515Z,5.10
2018-09-14T03:41:39.762Z,5.87
2018-09-14T03:42:42.744Z,5.15
2018-09-14T03:43:45.938Z,6.17
2018-09-14T03:44:49.001Z,5.25
2018-09-14T03:45:52.221Z,5.50
2018-09-14T03:46:55.318Z,5.60
2018-09-14T03:47:58.474Z,4.95
2018-09-14T03:49:01.596Z,5.22
2018-09-14T03:50:04.908Z,5.83
2018-09-14T03:51:08.092Z,6.10
2018-09-14T03:52:11.156Z,5.17
2018-09-14T03:53:14.169Z,5.03
2018-09-14T03:54:17.198Z,5.60
2018-09-14T03:55:20.342Z,5.50
2018-09-14T03:56:23.548Z,6.75
2018-09-14T03:57:26.646Z,5.85
2018-09-14T03:58:29.764Z,6.17
2018-09-14T03:59:34.417Z,5.60
2018-09-14T04:00:37.555Z,6.10
2018-09-14T04:01:40.835Z,6.37
2018-09-14T04:02:43.820Z,5.60
2018-09-14T04:03:46.920Z,6.80
2018-09-14T04:04:50.101Z,5.03
2018-09-14T04:05:53.147Z,5.97
2018-09-14T04:06:56.306Z,6.47
2018-09-14T04:07:59.472Z,5.53
2018-09-14T04:09:02.582Z,5.40
2018-09-14T04:10:05.725Z,5.70
2018-09-14T04:11:09.004Z,5.08
2018-09-14T04:12:12.144Z,5.60
2018-09-14T04:13:15.380Z,5.28
2018-09-14T04:14:18.489Z,5.83
2018-09-14T04:15:21.491Z,7.55
2018-09-14T04:16:24.616Z,5.47
2018-09-14T04:17:27.749Z,6.62
2018-09-14T04:18:30.871Z,5.37
2018-09-14T04:19:34.040Z,5.30
2018-09-14T04:20:37.267Z,6.00
2018-09-14T04:21:40.430Z,5.80
2018-09-14T04:22:43.580Z,6.03
2018-09-14T04:23:46.821Z,6.70
2018-09-14T04:24:49.892Z,5.40
2018-09-14T04:25:53.000Z,5.28
2018-09-14T04:26:56.116Z,5.92
2018-09-14T04:27:59.273Z,4.78
2018-09-14T04:29:02.428Z,5.85
2018-09-14T04:30:05.590Z,5.47
2018-09-14T04:31:08.835Z,5.08
2018-09-14T04:32:12.007Z,5.55
2018-09-14T04:33:15.144Z,5.72
2018-09-14T04:34:18.319Z,4.97
2018-09-14T04:35:21.406Z,5.85
2018-09-14T04:36:24.608Z,5.05
2018-09-14T04:37:27.720Z,6.17
2018-09-14T04:38:31.046Z,6.22
2018-09-14T04:39:34.093Z,5.35
2018-09-14T04:40:37.154Z,5.65
2018-09-14T04:41:40.420Z,5.47
2018-09-14T04:42:43.523Z,6.15
2018-09-14T04:43:46.669Z,5.30
2018-09-14T04:44:49.813Z,6.50
2018-09-14T04:45:53.916Z,5.50
2018-09-14T04:46:58.606Z,6.00
2018-09-14T04:48:03.022Z,5.78
2018-09-14T04:49:06.113Z,5.67
2018-09-14T04:50:11.320Z,5.20
2018-09-14T04:51:14.831Z,5.95
2018-09-14T04:52:17.943Z,6.03
2018-09-14T04:53:20.939Z,8.40
2018-09-14T04:54:24.021Z,5.22
2018-09-14T04:55:27.168Z,7.05
2018-09-14T04:56:30.260Z,6.20
2018-09-14T04:57:33.305Z,5.53
2018-09-14T04:58:36.344Z,6.78
2018-09-14T04:59:39.459Z,5.20
2018-09-14T05:00:42.641Z,5.53
2018-09-14T05:01:45.925Z,5.65
2018-09-14T05:02:49.036Z,6.42
2018-09-14T05:03:52.086Z,5.62
2018-09-14T05:04:55.536Z,6.97
2018-09-14T05:05:58.662Z,5.42
2018-09-14T05:07:01.820Z,5.50
2018-09-14T05:08:06.964Z,4.85
2018-09-14T05:09:10.468Z,5.25
2018-09-14T05:10:15.958Z,6.53
2018-09-14T05:11:19.294Z,5.42
2018-09-14T05:12:22.728Z,4.92
2018-09-14T05:13:25.940Z,5.40
2018-09-14T05:14:29.198Z,6.58
2018-09-14T05:15:32.876Z,5.40
2018-09-14T05:16:36.161Z,5.15
2018-09-14T05:17:39.540Z,5.22
2018-09-14T05:18:44.159Z,5.65
2018-09-14T05:19:47.221Z,4.87
2018-09-14T05:20:50.459Z,6.10
2018-09-14T05:21:53.552Z,5.83
2018-09-14T05:22:56.743Z,5.50
2018-09-14T05:24:00.299Z,5.97
2018-09-14T05:25:03.489Z,5.87
2018-09-14T05:26:07.571Z,5.50
2018-09-14T05:27:12.485Z,5.95
2018-09-14T05:28:15.877Z,5.75
2018-09-14T05:29:19.567Z,5.15
2018-09-14T05:30:23.055Z,5.70
2018-09-14T05:31:28.649Z,5.97
2018-09-14T05:32:31.694Z,5.92
2018-09-14T05:33:34.879Z,5.17
2018-09-14T05:34:37.927Z,4.95
2018-09-14T05:35:41.085Z,5.42
2018-09-14T05:36:44.220Z,6.20
2018-09-14T05:37:47.270Z,5.25
2018-09-14T05:38:50.381Z,5.08
2018-09-14T05:39:53.418Z,5.95
2018-09-14T05:40:56.604Z,5.80
2018-09-14T05:41:59.803Z,6.20
2018-09-14T05:43:03.044Z,5.72
2018-09-14T05:44:06.145Z,8.03
2018-09-14T05:45:09.394Z,5.30
2018-09-14T05:46:12.399Z,5.55
2018-09-14T05:47:15.425Z,5.65
2018-09-14T05:48:18.480Z,6.10
2018-09-14T05:49:21.623Z,4.85
2018-09-14T05:50:24.609Z,5.30
2018-09-14T05:51:27.597Z,7.67
2018-09-14T05:52:30.973Z,6.65
2018-09-14T05:53:34.462Z,5.03
2018-09-14T05:54:37.586Z,5.37
2018-09-14T05:55:41.151Z,5.42
2018-09-14T05:56:44.345Z,5.60
2018-09-14T05:57:47.379Z,5.33
2018-09-14T05:58:50.400Z,5.30
2018-09-14T05:59:53.476Z,6.10
2018-09-14T06:00:56.456Z,5.85
2018-09-14T06:01:59.456Z,4.87
2018-09-14T06:03:02.843Z,5.62
2018-09-14T06:04:06.432Z,5.10
2018-09-14T06:05:10.135Z,5.15
2018-09-14T06:06:13.217Z,4.83
2018-09-14T06:07:16.332Z,4.90
2018-09-14T06:08:19.460Z,5.55
2018-09-14T06:09:22.646Z,4.72
2018-09-14T06:10:25.787Z,5.28
2018-09-14T06:11:28.810Z,4.65
2018-09-14T06:12:31.889Z,6.85
2018-09-14T06:13:35.636Z,5.65
2018-09-14T06:14:38.745Z,5.70
2018-09-14T06:15:41.885Z,5.80
2018-09-14T06:16:44.968Z,5.03
2018-09-14T06:17:47.997Z,5.33
2018-09-14T06:18:51.212Z,4.50
2018-09-14T06:19:54.757Z,5.50
2018-09-14T06:20:58.126Z,4.30
2018-09-14T06:22:01.200Z,4.35
2018-09-14T06:23:04.423Z,4.83
2018-09-14T06:24:07.421Z,4.70
2018-09-14T06:25:10.579Z,4.83
2018-09-14T06:26:13.900Z,5.03
2018-09-14T06:27:16.962Z,4.28
2018-09-14T06:28:20.258Z,4.47
2018-09-14T06:29:23.379Z,4.17
2018-09-14T06:30:26.642Z,5.33
2018-09-14T06:31:29.905Z,4.78
2018-09-14T06:32:33.085Z,4.03
2018-09-14T06:33:36.341Z,4.53
2018-09-14T06:34:39.570Z,3.95
2018-09-14T06:35:42.694Z,5.42
2018-09-14T06:36:45.785Z,5.15
2018-09-14T06:37:49.009Z,4.80
2018-09-14T06:38:52.096Z,5.58
2018-09-14T06:39:55.243Z,5.85
2018-09-14T06:40:58.304Z,4.62
2018-09-14T06:42:01.349Z,4.20
2018-09-14T06:43:04.416Z,4.50
2018-09-14T06:44:07.884Z,3.70
2018-09-14T06:45:11.163Z,4.15
2018-09-14T06:46:14.167Z,4.35
2018-09-14T06:47:17.224Z,3.67
2018-09-14T06:48:20.221Z,3.98
2018-09-14T06:49:23.252Z,4.22
2018-09-14T06:50:26.655Z,3.52
2018-09-14T06:51:29.920Z,4.25
2018-09-14T06:52:32.944Z,3.83
2018-09-14T06:53:35.934Z,3.85
2018-09-14T06:54:38.972Z,4.03
2018-09-14T06:55:41.948Z,4.17
2018-09-14T06:56:44.955Z,4.15
2018-09-14T06:57:48.079Z,3.65
2018-09-14T06:58:51.099Z,3.77
2018-09-14T06:59:54.129Z,3.85
2018-09-14T07:00:57.155Z,5.90
2018-09-14T07:02:00.143Z,5.03
2018-09-14T07:03:03.199Z,3.85
2018-09-14T07:04:06.200Z,4.40
2018-09-14T07:05:09.220Z,4.83
2018-09-14T07:06:12.203Z,4.40
2018-09-14T07:07:15.250Z,4.05
2018-09-14T07:08:18.312Z,4.72
2018-09-14T07:09:21.332Z,7.90
2018-09-14T07:10:24.416Z,5.58
2018-09-14T07:11:27.452Z,4.33
2018-09-14T07:12:30.568Z,3.98
2018-09-14T07:13:33.890Z,4.92
2018-09-14T07:14:36.983Z,3.85
2018-09-14T07:15:40.055Z,4.08
2018-09-14T07:16:43.176Z,4.80
2018-09-14T07:17:46.201Z,4.12
2018-09-14T07:18:49.319Z,5.30
2018-09-14T07:19:52.377Z,4.37
2018-09-14T07:20:55.408Z,3.83
2018-09-14T07:21:58.511Z,4.25
2018-09-14T07:23:01.512Z,5.10
2018-09-14T07:24:04.649Z,3.95
2018-09-14T07:25:07.742Z,4.97
2018-09-14T07:26:10.989Z,4.72
2018-09-14T07:27:14.055Z,5.00
2018-09-14T07:28:17.061Z,3.98
2018-09-14T07:29:20.155Z,5.15
2018-09-14T07:30:23.374Z,3.12
2018-09-14T07:31:26.585Z,5.60
2018-09-14T07:32:29.634Z,3.92
2018-09-14T07:33:32.652Z,3.83
2018-09-14T07:34:35.696Z,5.62
2018-09-14T07:35:38.800Z,4.00
2018-09-14T07:36:42.045Z,4.10
2018-09-14T07:37:45.099Z,3.58
2018-09-14T07:38:48.128Z,3.90
2018-09-14T07:39:51.320Z,4.60
2018-09-14T07:40:54.375Z,3.47
2018-09-14T07:41:57.417Z,5.17
2018-09-14T07:43:00.453Z,3.37
2018-09-14T07:44:03.753Z,3.47
2018-09-14T07:45:06.825Z,4.03
2018-09-14T07:46:09.855Z,3.67
2018-09-14T07:47:12.950Z,3.72
2018-09-14T07:48:16.196Z,3.87
2018-09-14T07:49:19.163Z,3.85
2018-09-14T07:50:22.943Z,3.98
2018-09-14T07:51:25.959Z,4.17
2018-09-14T07:52:29.009Z,3.72
2018-09-14T07:53:32.063Z,3.30
2018-09-14T07:54:35.131Z,3.52
2018-09-14T07:55:38.365Z,4.55
2018-09-14T07:56:41.582Z,3.40
2018-09-14T07:57:44.697Z,3.90
2018-09-14T07:58:47.850Z,3.67
2018-09-14T07:59:51.059Z,4.37
2018-09-14T08:00:54.513Z,3.08
2018-09-14T08:01:57.614Z,4.10
2018-09-14T08:03:00.651Z,3.80
2018-09-14T08:04:03.982Z,5.10
2018-09-14T08:05:07.414Z,3.98
2018-09-14T08:06:10.704Z,3.12
2018-09-14T08:07:13.789Z,5.17
2018-09-14T08:08:17.044Z,3.60
2018-09-14T08:09:20.293Z,3.67
2018-09-14T08:10:23.701Z,3.50
2018-09-14T08:11:26.800Z,4.12
2018-09-14T08:12:30.385Z,4.42
2018-09-14T08:13:33.749Z,4.25
2018-09-14T08:14:36.985Z,3.50
2018-09-14T08:15:40.258Z,4.22
2018-09-14T08:16:43.339Z,4.25
2018-09-14T08:17:46.658Z,3.47
2018-09-14T08:18:49.894Z,4.37
2018-09-14T08:19:52.965Z,3.45
2018-09-14T08:20:56.073Z,5.08
2018-09-14T08:21:59.456Z,3.58
2018-09-14T08:23:02.815Z,3.70
2018-09-14T08:24:06.300Z,3.80
2018-09-14T08:25:09.564Z,3.72
2018-09-14T08:26:12.688Z,5.05
2018-09-14T08:27:16.015Z,5.50
2018-09-14T08:28:19.183Z,4.12
2018-09-14T08:29:22.240Z,3.47
2018-09-14T08:30:25.625Z,3.83
2018-09-14T08:31:28.709Z,3.22
2018-09-14T08:32:31.779Z,3.25
2018-09-14T08:33:34.918Z,3.42
2018-09-14T08:34:38.402Z,4.25
2018-09-14T08:35:41.428Z,4.03
2018-09-14T08:36:44.505Z,3.35
2018-09-14T08:37:47.563Z,3.90
2018-09-14T08:38:50.603Z,3.62
2018-09-14T08:39:53.934Z,4.12
2018-09-14T08:40:56.993Z,3.72
2018-09-14T08:42:01.932Z,3.60
2018-09-14T08:43:04.934Z,4.58
2018-09-14T08:44:08.084Z,3.50
2018-09-14T08:45:11.249Z,3.92
2018-09-14T08:46:14.516Z,3.55
2018-09-14T08:47:17.564Z,3.90
2018-09-14T08:48:20.611Z,4.85
2018-09-14T08:49:23.831Z,5.08
2018-09-14T08:50:26.916Z,3.70
2018-09-14T08:51:30.159Z,3.77
2018-09-14T08:52:33.286Z,4.03
2018-09-14T08:53:36.507Z,3.40
2018-09-14T08:54:39.569Z,3.60
2018-09-14T08:55:42.885Z,3.92
2018-09-14T08:56:46.453Z,4.08
2018-09-14T08:57:49.787Z,4.45
2018-09-14T08:58:52.938Z,4.20
2018-09-14T08:59:56.696Z,3.85
2018-09-14T09:00:59.964Z,3.87
2018-09-14T09:02:03.385Z,4.03
2018-09-14T09:03:06.409Z,3.98
2018-09-14T09:04:09.708Z,4.45
2018-09-14T09:05:12.816Z,3.80
2018-09-14T09:06:17.847Z,3.87
2018-09-14T09:07:22.089Z,4.70
2018-09-14T09:08:29.724Z,3.67
2018-09-14T09:09:38.425Z,3.83
2018-09-14T09:10:47.809Z,3.92
2018-09-14T09:11:53.236Z,3.45
2018-09-14T09:13:04.685Z,4.40
2018-09-14T09:14:13.027Z,4.10
2018-09-14T09:15:17.956Z,3.37
2018-09-14T09:16:21.884Z,3.62
2018-09-14T09:17:27.489Z,3.58
2018-09-14T09:18:34.908Z,3.52
2018-09-14T09:19:42.135Z,3.40
2018-09-14T09:20:52.634Z,4.37
2018-09-14T09:21:58.234Z,3.35
2018-09-14T09:23:04.961Z,4.90
2018-09-14T09:24:16.300Z,3.45
2018-09-14T09:25:19.974Z,4.37
2018-09-14T09:26:23.899Z,3.77
2018-09-14T09:27:27.038Z,5.30
2018-09-14T09:28:30.184Z,4.12
2018-09-14T09:29:33.377Z,3.90
2018-09-14T09:30:36.376Z,3.80
2018-09-14T09:31:39.706Z,4.03
2018-09-14T09:32:42.884Z,4.85
2018-09-14T09:33:45.981Z,7.20
2018-09-14T09:34:49.454Z,7.00
2018-09-14T09:35:52.925Z,10.43
2018-09-14T09:36:56.104Z,8.80
2018-09-14T09:37:59.185Z,9.55
2018-09-14T09:39:02.221Z,7.60
2018-09-14T09:40:05.492Z,8.93
2018-09-14T09:41:08.559Z,8.48
2018-09-14T09:42:11.561Z,11.83
2018-09-14T09:43:14.679Z,9.43
2018-09-14T09:44:17.709Z,9.73
2018-09-14T09:45:20.728Z,9.43
2018-09-14T09:46:23.831Z,9.53
2018-09-14T09:47:26.993Z,8.43
2018-09-14T09:48:30.090Z,8.63
2018-09-14T09:49:33.163Z,8.98
2018-09-14T09:50:36.188Z,9.45
2018-09-14T09:51:39.337Z,8.35
2018-09-14T09:52:42.337Z,8.43
2018-09-14T09:53:45.402Z,7.67
2018-09-14T09:54:48.457Z,8.63
2018-09-14T09:55:51.528Z,7.15
2018-09-14T09:56:54.616Z,5.62
2018-09-14T09:57:57.702Z,7.45
2018-09-14T09:59:00.799Z,6.78
2018-09-14T10:00:03.951Z,5.92
2018-09-14T10:01:12.392Z,6.28
2018-09-14T10:02:20.929Z,6.28
2018-09-14T10:03:29.341Z,7.35
2018-09-14T10:04:32.298Z,6.03
2018-09-14T10:05:40.692Z,7.97
2018-09-14T10:06:43.733Z,7.92
2018-09-14T10:07:47.000Z,6.90
2018-09-14T10:08:50.041Z,5.90
2018-09-14T10:09:53.280Z,6.72
2018-09-14T10:10:56.390Z,6.15
2018-09-14T10:12:06.080Z,5.90
2018-09-14T10:13:09.118Z,7.40
2018-09-14T10:14:12.219Z,5.87
2018-09-14T10:15:15.241Z,7.87
2018-09-14T10:16:18.272Z,5.83
2018-09-14T10:17:21.365Z,7.33
2018-09-14T10:18:24.396Z,6.92
2018-09-14T10:19:27.400Z,6.05
2018-09-14T10:20:30.387Z,5.65
2018-09-14T10:21:33.436Z,6.85
2018-09-14T10:22:36.546Z,8.85
2018-09-14T10:23:39.764Z,7.08
2018-09-14T10:24:42.929Z,6.85
2018-09-14T10:25:45.984Z,6.05
2018-09-14T10:26:49.074Z,6.45
2018-09-14T10:27:53.135Z,8.73
2018-09-14T10:28:56.212Z,10.65
2018-09-14T10:29:59.315Z,9.95
2018-09-14T10:31:02.449Z,12.37
2018-09-14T10:32:05.459Z,9.93
2018-09-14T10:33:08.500Z,12.68
2018-09-14T10:34:11.600Z,10.23
2018-09-14T10:35:14.788Z,11.08
2018-09-14T10:36:17.853Z,13.78
2018-09-14T10:37:20.903Z,10.90
2018-09-14T10:38:23.937Z,13.03
2018-09-14T10:39:33.974Z,11.33
2018-09-14T10:40:37.241Z,10.48
2018-09-14T10:41:40.209Z,11.43
2018-09-14T10:42:43.297Z,10.25
2018-09-14T10:43:46.565Z,14.60
2018-09-14T10:44:49.623Z,11.83
2018-09-14T10:45:52.692Z,13.62
2018-09-14T10:46:55.949Z,10.48
2018-09-14T10:47:59.552Z,12.35
2018-09-14T10:49:03.172Z,11.93
2018-09-14T10:50:06.940Z,11.93
2018-09-14T10:51:12.391Z,14.40
2018-09-14T10:52:15.581Z,14.83
2018-09-14T10:53:18.680Z,17.30
2018-09-14T10:54:21.751Z,15.40
2018-09-14T10:55:24.946Z,16.62
2018-09-14T10:56:28.030Z,14.35
2018-09-14T10:57:31.395Z,15.98
2018-09-14T10:58:39.985Z,13.98
2018-09-14T10:59:43.797Z,13.53
2018-09-14T11:00:47.130Z,13.50
2018-09-14T11:01:50.940Z,12.43
2018-09-14T11:02:54.135Z,10.88
2018-09-14T11:03:57.887Z,11.93
2018-09-14T11:05:00.973Z,12.85
2018-09-14T11:06:04.050Z,12.07
2018-09-14T11:07:07.173Z,12.80
2018-09-14T11:08:10.296Z,11.85
2018-09-14T11:09:13.871Z,12.10
2018-09-14T11:10:16.951Z,10.43
2018-09-14T11:11:20.006Z,11.00
2018-09-14T11:12:22.986Z,9.65
2018-09-14T11:13:26.016Z,9.83
2018-09-14T11:14:29.087Z,9.48
2018-09-14T11:15:32.580Z,10.43
2018-09-14T11:16:35.769Z,10.58
2018-09-14T11:17:39.009Z,9.13
2018-09-14T11:18:42.057Z,10.43
2018-09-14T11:19:45.270Z,8.98
2018-09-14T11:20:48.516Z,11.88
2018-09-14T11:21:51.764Z,8.78
2018-09-14T11:22:54.860Z,9.45
2018-09-14T11:23:57.926Z,10.98
2018-09-14T11:25:01.097Z,9.45
2018-09-14T11:26:04.140Z,8.43
2018-09-14T11:27:07.264Z,9.15
2018-09-14T11:28:10.317Z,10.63
2018-09-14T11:29:13.618Z,8.28
2018-09-14T11:30:16.683Z,10.75
2018-09-14T11:31:24.112Z,9.20
2018-09-14T11:32:27.659Z,10.30
2018-09-14T11:33:30.693Z,7.87
2018-09-14T11:34:33.734Z,9.65
2018-09-14T11:35:36.882Z,8.75
2018-09-14T11:36:39.961Z,9.50
2018-09-14T11:37:43.028Z,7.87
2018-09-14T11:38:46.112Z,9.43
2018-09-14T11:39:49.141Z,9.55
2018-09-14T11:40:52.391Z,9.48
2018-09-14T11:41:55.467Z,10.85
2018-09-14T11:42:58.521Z,10.93
2018-09-14T11:44:01.708Z,10.75
2018-09-14T11:45:05.032Z,9.63
2018-09-14T11:46:08.161Z,8.80
2018-09-14T11:47:11.176Z,11.78
2018-09-14T11:48:15.985Z,8.83
2018-09-14T11:49:19.910Z,8.13
2018-09-14T11:50:23.793Z,10.15
2018-09-14T11:51:27.766Z,9.15
2018-09-14T11:52:32.891Z,9.10
2018-09-14T11:53:42.432Z,9.95
2018-09-14T11:54:48.700Z,7.65
2018-09-14T11:55:51.902Z,9.53
2018-09-14T11:56:55.012Z,8.85
2018-09-14T11:57:58.044Z,8.63
2018-09-14T11:59:01.067Z,8.13
2018-09-14T12:00:04.108Z,8.10
2018-09-14T12:01:07.141Z,9.45
2018-09-14T12:02:10.129Z,10.68
2018-09-14T12:03:13.209Z,9.25
2018-09-14T12:04:16.212Z,9.20
2018-09-14T12:05:19.237Z,8.90
2018-09-14T12:06:22.376Z,9.20
2018-09-14T12:07:25.466Z,7.90
2018-09-14T12:08:28.616Z,8.03
2018-09-14T12:09:31.689Z,9.03
2018-09-14T12:10:34.698Z,8.25
2018-09-14T12:11:37.983Z,9.03
2018-09-14T12:12:41.061Z,9.55
2018-09-14T12:13:44.159Z,9.85
2018-09-14T12:14:47.201Z,10.38
2018-09-14T12:15:50.191Z,9.85
2018-09-14T12:16:53.196Z,10.13
2018-09-14T12:17:56.225Z,10.00
2018-09-14T12:18:59.244Z,8.03
2018-09-14T12:20:02.366Z,9.85
2018-09-14T12:21:05.504Z,8.78
2018-09-14T12:22:09.049Z,13.25
2018-09-14T12:23:12.156Z,8.58
2018-09-14T12:24:15.199Z,8.63
2018-09-14T12:25:18.211Z,8.73
2018-09-14T12:26:21.299Z,8.93
2018-09-14T12:27:24.509Z,10.08
2018-09-14T12:28:27.681Z,8.55
2018-09-14T12:29:30.753Z,9.95
2018-09-14T12:30:34.012Z,7.25
2018-09-14T12:31:37.180Z,9.25
2018-09-14T12:32:40.367Z,8.68
2018-09-14T12:33:43.453Z,11.18
2018-09-14T12:34:46.557Z,9.35
2018-09-14T12:35:49.588Z,8.43
2018-09-14T12:36:52.568Z,8.70
2018-09-14T12:37:55.591Z,7.50
2018-09-14T12:38:58.683Z,9.60
2018-09-14T12:40:01.812Z,10.60
2018-09-14T12:41:04.848Z,11.45
2018-09-14T12:42:07.901Z,8.10
2018-09-14T12:43:10.932Z,8.50
2018-09-14T12:44:13.951Z,8.55
2018-09-14T12:45:16.984Z,11.05
2018-09-14T12:46:20.184Z,7.78
2018-09-14T12:47:23.308Z,8.20
2018-09-14T12:48:26.300Z,10.43
2018-09-14T12:49:29.544Z,9.50
2018-09-14T12:50:32.596Z,7.67
2018-09-14T12:51:35.615Z,9.48
2018-09-14T12:52:38.615Z,8.20
2018-09-14T12:53:41.686Z,9.28
2018-09-14T12:54:44.677Z,9.93
2018-09-14T12:55:47.692Z,8.13
2018-09-14T12:56:50.685Z,8.55
2018-09-14T12:57:53.740Z,10.48
2018-09-14T12:58:56.712Z,8.55
2018-09-14T12:59:59.784Z,7.70
2018-09-14T13:01:02.821Z,9.23
2018-09-14T13:02:05.942Z,7.87
2018-09-14T13:03:08.976Z,7.85
2018-09-14T13:04:12.111Z,11.53
2018-09-14T13:05:15.143Z,9.65
2018-09-14T13:06:18.136Z,8.53
2018-09-14T13:07:21.533Z,8.80
2018-09-14T13:08:24.585Z,8.68
2018-09-14T13:09:27.614Z,8.30
2018-09-14T13:10:30.645Z,9.70
2018-09-14T13:11:33.903Z,8.85
2018-09-14T13:12:37.473Z,8.58
2018-09-14T13:13:40.580Z,8.33
2018-09-14T13:14:43.601Z,8.25
2018-09-14T13:15:46.692Z,8.80
2018-09-14T13:16:50.320Z,8.20
2018-09-14T13:17:53.322Z,7.55
2018-09-14T13:18:56.321Z,7.90
2018-09-14T13:19:59.359Z,8.10
2018-09-14T13:21:02.389Z,6.92
2018-09-14T13:22:05.362Z,7.12
2018-09-14T13:23:08.407Z,8.53
2018-09-14T13:24:11.523Z,9.85
2018-09-14T13:25:14.580Z,8.63
2018-09-14T13:26:17.636Z,7.97
2018-09-14T13:27:20.725Z,12.37
2018-09-14T13:28:23.839Z,14.90
2018-09-14T13:29:26.860Z,14.95
2018-09-14T13:30:29.950Z,15.93
2018-09-14T13:31:32.993Z,20.68
2018-09-14T13:32:36.020Z,26.45
2018-09-14T13:33:39.158Z,26.70
2018-09-14T13:34:42.119Z,25.77
2018-09-14T13:35:45.152Z,24.15
2018-09-14T13:36:48.204Z,23.90
2018-09-14T13:37:51.721Z,24.67
2018-09-14T13:38:54.755Z,22.87
2018-09-14T13:39:57.844Z,21.62
2018-09-14T13:41:00.891Z,19.75
2018-09-14T13:42:03.892Z,18.45
2018-09-14T13:43:06.968Z,15.20
2018-09-14T13:44:10.059Z,12.85
2018-09-14T13:45:13.092Z,13.88
2018-09-14T13:46:16.159Z,12.33
2018-09-14T13:47:19.139Z,13.72
2018-09-14T13:48:22.283Z,12.60
2018-09-14T13:49:25.692Z,13.05
2018-09-14T13:50:28.847Z,10.60
2018-09-14T13:51:31.956Z,10.48
2018-09-14T13:52:35.030Z,11.33
2018-09-14T13:53:38.089Z,12.60
2018-09-14T13:54:41.150Z,10.60
2018-09-14T13:55:44.192Z,13.20
2018-09-14T13:56:47.324Z,9.45
2018-09-14T13:57:50.368Z,11.40
2018-09-14T13:58:53.413Z,12.55
2018-09-14T13:59:56.493Z,9.13